Ceres, Washington
Current Conditions -  °F | °C
As of 4:15 AM on Monday 20 Oct 2014 (Local Time) from KCLS Reporting Station
Overcast Overcast  
Wind Chill: 15°   Ceiling: 3300
Heat Index: 15°   Visibility: 10mi
Dew Point: 14°   Wind: 0mph
Humidity: 94%   Direction: NA
Pressure: 29.7"   Gusts: NA
Location:  46.6561°N, 122.993°W
Report Text: KCLS 201115Z AUTO 00000KT 10SM OVC033 15/14 A2970 RMK AO2
Loading
Personal Weather Stations






























Interactive Weather Map
Tropical Storm Tracking
New forecast layout! Learn more

10-Day Weather Forecast

Advertisements
Track Severe Weather on mobile